sensor_id;sensor_type;location;lat;lon;timestamp;temperature;humidity
13610;DHT22;6876;50.788;4.940;2023-05-10T00:02:15;13.30;99.90
13610;DHT22;6876;50.788;4.940;2023-05-10T00:05:03;13.30;99.90
13610;DHT22;6876;50.788;4.940;2023-05-10T00:07:50;13.20;99.90
13610;DHT22;6876;50.788;4.940;2023-05-10T00:10:39;13.20;99.90
13610;DHT22;6876;50.788;4.940;2023-05-10T00:13:27;13.20;99.90
13610;DHT22;6876;50.788;4.940;2023-05-10T00:16:14;13.20;99.90
13610;DHT22;6876;50.788;4.940;2023-05-10T00:19:01;13.20;99.90
13610;DHT22;6876;50.788;4.940;2023-05-10T00:21:48;13.20;99.90
13610;DHT22;6876;50.788;4.940;2023-05-10T00:24:36;13.20;99.90
13610;DHT22;6876;50.788;4.940;2023-05-10T00:27:24;13.20;99.90
13610;DHT22;6876;50.788;4.940;2023-05-10T00:30:12;13.10;99.90
13610;DHT22;6876;50.788;4.940;2023-05-10T00:32:59;13.20;99.90
13610;DHT22;6876;50.788;4.940;2023-05-10T00:35:47;13.20;99.90
13610;DHT22;6876;50.788;4.940;2023-05-10T00:38:34;13.20;99.90
13610;DHT22;6876;50.788;4.940;2023-05-10T00:41:21;13.30;99.90
13610;DHT22;6876;50.788;4.940;2023-05-10T00:44:11;13.30;99.90
13610;DHT22;6876;50.788;4.940;2023-05-10T00:46:59;13.20;99.90
13610;DHT22;6876;50.788;4.940;2023-05-10T00:49:46;13.10;99.90
13610;DHT22;6876;50.788;4.940;2023-05-10T00:52:34;13.20;99.90
13610;DHT22;6876;50.788;4.940;2023-05-10T00:55:21;13.20;99.90
13610;DHT22;6876;50.788;4.940;2023-05-10T00:58:09;13.20;99.90
13610;DHT22;6876;50.788;4.940;2023-05-10T01:00:58;13.20;99.90
13610;DHT22;6876;50.788;4.940;2023-05-10T01:03:45;13.20;99.90
13610;DHT22;6876;50.788;4.940;2023-05-10T01:06:33;13.20;99.90
13610;DHT22;6876;50.788;4.940;2023-05-10T01:09:21;13.20;99.90
13610;DHT22;6876;50.788;4.940;2023-05-10T01:12:09;13.20;99.90
13610;DHT22;6876;50.788;4.940;2023-05-10T01:14:57;13.20;99.90
13610;DHT22;6876;50.788;4.940;2023-05-10T01:17:46;13.10;99.90
13610;DHT22;6876;50.788;4.940;2023-05-10T01:20:40;13.10;99.90
13610;DHT22;6876;50.788;4.940;2023-05-10T01:24:09;13.20;99.90
13610;DHT22;6876;50.788;4.940;2023-05-10T01:30:43;13.20;99.90
13610;DHT22;6876;50.788;4.940;2023-05-10T01:33:39;13.20;99.90
13610;DHT22;6876;50.788;4.940;2023-05-10T01:36:31;13.20;99.90
13610;DHT22;6876;50.788;4.940;2023-05-10T01:39:24;13.10;99.90
13610;DHT22;6876;50.788;4.940;2023-05-10T01:42:16;13.10;99.90
13610;DHT22;6876;50.788;4.940;2023-05-10T01:45:10;13.10;99.90
13610;DHT22;6876;50.788;4.940;2023-05-10T01:48:05;13.20;99.90
13610;DHT22;6876;50.788;4.940;2023-05-10T01:50:56;13.20;99.90
13610;DHT22;6876;50.788;4.940;2023-05-10T01:53:44;13.20;99.90
13610;DHT22;6876;50.788;4.940;2023-05-10T01:56:35;13.20;99.90
13610;DHT22;6876;50.788;4.940;2023-05-10T01:59:28;13.20;99.90
13610;DHT22;6876;50.788;4.940;2023-05-10T02:02:17;13.20;99.90
13610;DHT22;6876;50.788;4.940;2023-05-10T02:05:07;13.20;99.90
13610;DHT22;6876;50.788;4.940;2023-05-10T02:07:57;13.10;99.90
13610;DHT22;6876;50.788;4.940;2023-05-10T02:10:45;13.10;99.90
13610;DHT22;6876;50.788;4.940;2023-05-10T02:13:35;13.20;99.90
13610;DHT22;6876;50.788;4.940;2023-05-10T02:16:26;13.10;99.90
13610;DHT22;6876;50.788;4.940;2023-05-10T02:19:17;13.10;99.90
13610;DHT22;6876;50.788;4.940;2023-05-10T02:22:06;13.10;99.90
13610;DHT22;6876;50.788;4.940;2023-05-10T02:24:58;13.10;99.90
13610;DHT22;6876;50.788;4.940;2023-05-10T02:27:46;13.20;99.90
13610;DHT22;6876;50.788;4.940;2023-05-10T02:30:35;13.20;99.90
13610;DHT22;6876;50.788;4.940;2023-05-10T02:33:23;13.30;99.90
13610;DHT22;6876;50.788;4.940;2023-05-10T02:36:12;13.20;99.90
13610;DHT22;6876;50.788;4.940;2023-05-10T02:39:01;13.20;99.90
13610;DHT22;6876;50.788;4.940;2023-05-10T02:41:51;13.20;99.90
13610;DHT22;6876;50.788;4.940;2023-05-10T02:44:41;13.10;99.90
13610;DHT22;6876;50.788;4.940;2023-05-10T02:47:29;13.20;99.90
13610;DHT22;6876;50.788;4.940;2023-05-10T02:50:16;13.20;99.90
13610;DHT22;6876;50.788;4.940;2023-05-10T02:53:06;13.30;99.90
13610;DHT22;6876;50.788;4.940;2023-05-10T02:55:59;13.20;99.90
13610;DHT22;6876;50.788;4.940;2023-05-10T02:58:51;13.20;99.90
13610;DHT22;6876;50.788;4.940;2023-05-10T03:01:38;13.20;99.90
13610;DHT22;6876;50.788;4.940;2023-05-10T03:04:26;13.20;99.90
13610;DHT22;6876;50.788;4.940;2023-05-10T03:07:13;13.20;99.90
13610;DHT22;6876;50.788;4.940;2023-05-10T03:10:01;13.30;99.90
13610;DHT22;6876;50.788;4.940;2023-05-10T03:13:05;13.30;99.90
13610;DHT22;6876;50.788;4.940;2023-05-10T03:15:59;13.20;99.90
13610;DHT22;6876;50.788;4.940;2023-05-10T03:18:56;13.20;99.90
13610;DHT22;6876;50.788;4.940;2023-05-10T03:21:47;13.20;99.90
13610;DHT22;6876;50.788;4.940;2023-05-10T03:24:37;13.20;99.90
13610;DHT22;6876;50.788;4.940;2023-05-10T03:27:27;13.20;99.90
13610;DHT22;6876;50.788;4.940;2023-05-10T03:30:15;13.10;99.90
13610;DHT22;6876;50.788;4.940;2023-05-10T03:33:06;13.10;99.90
13610;DHT22;6876;50.788;4.940;2023-05-10T03:35:53;13.20;99.90
13610;DHT22;6876;50.788;4.940;2023-05-10T03:38:40;13.20;99.90
13610;DHT22;6876;50.788;4.940;2023-05-10T03:41:27;13.10;99.90
13610;DHT22;6876;50.788;4.940;2023-05-10T03:44:15;13.10;99.90
13610;DHT22;6876;50.788;4.940;2023-05-10T03:47:02;13.10;99.90
13610;DHT22;6876;50.788;4.940;2023-05-10T03:49:51;13.10;99.90
13610;DHT22;6876;50.788;4.940;2023-05-10T03:52:38;13.20;99.90
13610;DHT22;6876;50.788;4.940;2023-05-10T03:55:25;13.20;99.90
13610;DHT22;6876;50.788;4.940;2023-05-10T03:58:14;13.20;99.90
13610;DHT22;6876;50.788;4.940;2023-05-10T04:01:01;13.10;99.90
13610;DHT22;6876;50.788;4.940;2023-05-10T04:03:48;13.10;99.90
13610;DHT22;6876;50.788;4.940;2023-05-10T04:06:37;13.10;99.90
13610;DHT22;6876;50.788;4.940;2023-05-10T04:09:25;13.00;99.90
13610;DHT22;6876;50.788;4.940;2023-05-10T04:12:12;13.10;99.90
13610;DHT22;6876;50.788;4.940;2023-05-10T04:15:00;13.00;99.90
13610;DHT22;6876;50.788;4.940;2023-05-10T04:17:47;12.90;99.90
13610;DHT22;6876;50.788;4.940;2023-05-10T04:20:35;13.00;99.90
13610;DHT22;6876;50.788;4.940;2023-05-10T04:23:24;12.90;99.90
13610;DHT22;6876;50.788;4.940;2023-05-10T04:26:11;13.00;99.90
13610;DHT22;6876;50.788;4.940;2023-05-10T04:28:58;13.00;99.90
13610;DHT22;6876;50.788;4.940;2023-05-10T04:31:45;13.00;99.90
13610;DHT22;6876;50.788;4.940;2023-05-10T04:34:33;12.90;99.90
13610;DHT22;6876;50.788;4.940;2023-05-10T04:37:21;12.90;99.90
13610;DHT22;6876;50.788;4.940;2023-05-10T04:40:11;12.90;99.90
13610;DHT22;6876;50.788;4.940;2023-05-10T04:42:58;12.90;99.90
13610;DHT22;6876;50.788;4.940;2023-05-10T04:45:46;12.90;99.90
13610;DHT22;6876;50.788;4.940;2023-05-10T04:48:33;12.80;99.90
13610;DHT22;6876;50.788;4.940;2023-05-10T04:51:20;12.80;99.90
13610;DHT22;6876;50.788;4.940;2023-05-10T04:54:08;12.80;99.90
13610;DHT22;6876;50.788;4.940;2023-05-10T04:56:56;12.80;99.90
13610;DHT22;6876;50.788;4.940;2023-05-10T04:59:43;12.90;99.90
13610;DHT22;6876;50.788;4.940;2023-05-10T05:02:31;12.80;99.90
13610;DHT22;6876;50.788;4.940;2023-05-10T05:05:18;12.80;99.90
13610;DHT22;6876;50.788;4.940;2023-05-10T05:08:05;12.90;99.90
13610;DHT22;6876;50.788;4.940;2023-05-10T05:10:53;12.80;99.90
13610;DHT22;6876;50.788;4.940;2023-05-10T05:13:41;12.90;99.90
13610;DHT22;6876;50.788;4.940;2023-05-10T05:16:30;12.90;99.90
13610;DHT22;6876;50.788;4.940;2023-05-10T05:19:18;12.80;99.90
13610;DHT22;6876;50.788;4.940;2023-05-10T05:22:06;12.90;99.90
13610;DHT22;6876;50.788;4.940;2023-05-10T05:24:54;13.00;99.90
13610;DHT22;6876;50.788;4.940;2023-05-10T05:27:42;13.00;99.90
13610;DHT22;6876;50.788;4.940;2023-05-10T05:30:31;13.00;99.90
13610;DHT22;6876;50.788;4.940;2023-05-10T05:33:18;13.00;99.90
13610;DHT22;6876;50.788;4.940;2023-05-10T05:36:06;12.90;99.90
13610;DHT22;6876;50.788;4.940;2023-05-10T05:38:54;12.90;99.90
13610;DHT22;6876;50.788;4.940;2023-05-10T05:41:41;12.90;99.90
13610;DHT22;6876;50.788;4.940;2023-05-10T05:44:28;13.00;99.90
13610;DHT22;6876;50.788;4.940;2023-05-10T05:47:17;12.90;99.90
13610;DHT22;6876;50.788;4.940;2023-05-10T05:50:05;13.00;99.90
13610;DHT22;6876;50.788;4.940;2023-05-10T05:52:53;13.00;99.90
13610;DHT22;6876;50.788;4.940;2023-05-10T05:55:40;12.90;99.90
13610;DHT22;6876;50.788;4.940;2023-05-10T05:58:27;12.90;99.90
13610;DHT22;6876;50.788;4.940;2023-05-10T06:01:14;12.90;99.90
13610;DHT22;6876;50.788;4.940;2023-05-10T06:04:03;12.90;99.90
13610;DHT22;6876;50.788;4.940;2023-05-10T06:06:51;13.00;99.90
13610;DHT22;6876;50.788;4.940;2023-05-10T06:09:38;13.10;99.90
13610;DHT22;6876;50.788;4.940;2023-05-10T06:12:25;13.10;99.90
13610;DHT22;6876;50.788;4.940;2023-05-10T06:15:13;13.10;99.90
13610;DHT22;6876;50.788;4.940;2023-05-10T06:18:00;13.10;99.90
13610;DHT22;6876;50.788;4.940;2023-05-10T06:20:49;13.20;99.90
13610;DHT22;6876;50.788;4.940;2023-05-10T06:23:37;13.10;99.90
13610;DHT22;6876;50.788;4.940;2023-05-10T06:26:24;13.10;99.90
13610;DHT22;6876;50.788;4.940;2023-05-10T06:29:12;13.00;99.90
13610;DHT22;6876;50.788;4.940;2023-05-10T06:32:01;13.00;99.90
13610;DHT22;6876;50.788;4.940;2023-05-10T06:34:48;13.10;99.90
13610;DHT22;6876;50.788;4.940;2023-05-10T06:37:37;13.10;99.90
13610;DHT22;6876;50.788;4.940;2023-05-10T06:40:24;13.00;99.90
13610;DHT22;6876;50.788;4.940;2023-05-10T06:43:11;12.90;99.90
13610;DHT22;6876;50.788;4.940;2023-05-10T06:45:59;13.00;99.90
13610;DHT22;6876;50.788;4.940;2023-05-10T06:48:46;12.90;99.90
13610;DHT22;6876;50.788;4.940;2023-05-10T06:51:34;12.90;99.90
13610;DHT22;6876;50.788;4.940;2023-05-10T06:54:22;12.80;99.90
13610;DHT22;6876;50.788;4.940;2023-05-10T06:57:10;12.80;99.90
13610;DHT22;6876;50.788;4.940;2023-05-10T06:59:57;12.70;99.90
13610;DHT22;6876;50.788;4.940;2023-05-10T07:02:44;12.70;99.90
13610;DHT22;6876;50.788;4.940;2023-05-10T07:05:32;12.70;99.90
13610;DHT22;6876;50.788;4.940;2023-05-10T07:08:20;12.70;99.90
13610;DHT22;6876;50.788;4.940;2023-05-10T07:11:08;12.70;99.90
13610;DHT22;6876;50.788;4.940;2023-05-10T07:13:57;12.60;99.90
13610;DHT22;6876;50.788;4.940;2023-05-10T07:16:44;12.60;99.90
13610;DHT22;6876;50.788;4.940;2023-05-10T07:19:31;12.60;99.90
13610;DHT22;6876;50.788;4.940;2023-05-10T07:22:19;12.50;99.90
13610;DHT22;6876;50.788;4.940;2023-05-10T07:25:07;12.60;99.90
13610;DHT22;6876;50.788;4.940;2023-05-10T07:27:56;12.50;99.90
13610;DHT22;6876;50.788;4.940;2023-05-10T07:30:43;12.50;99.90
13610;DHT22;6876;50.788;4.940;2023-05-10T07:33:30;12.60;99.90
13610;DHT22;6876;50.788;4.940;2023-05-10T07:36:18;12.60;99.90
13610;DHT22;6876;50.788;4.940;2023-05-10T07:39:05;12.60;99.90
13610;DHT22;6876;50.788;4.940;2023-05-10T07:41:53;12.60;99.90
13610;DHT22;6876;50.788;4.940;2023-05-10T07:44:42;12.70;99.90
13610;DHT22;6876;50.788;4.940;2023-05-10T07:47:29;12.60;99.90
13610;DHT22;6876;50.788;4.940;2023-05-10T07:50:17;12.70;99.90
13610;DHT22;6876;50.788;4.940;2023-05-10T07:53:04;12.70;99.90
13610;DHT22;6876;50.788;4.940;2023-05-10T07:55:51;12.70;99.90
13610;DHT22;6876;50.788;4.940;2023-05-10T07:58:41;12.70;99.90
13610;DHT22;6876;50.788;4.940;2023-05-10T08:01:31;12.70;99.90
13610;DHT22;6876;50.788;4.940;2023-05-10T08:04:19;12.80;99.90
13610;DHT22;6876;50.788;4.940;2023-05-10T08:07:06;12.70;99.90
13610;DHT22;6876;50.788;4.940;2023-05-10T08:09:54;12.80;99.90
13610;DHT22;6876;50.788;4.940;2023-05-10T08:12:41;12.70;99.90
13610;DHT22;6876;50.788;4.940;2023-05-10T08:15:29;12.80;99.90
13610;DHT22;6876;50.788;4.940;2023-05-10T08:18:17;12.90;99.90
13610;DHT22;6876;50.788;4.940;2023-05-10T08:21:05;12.80;99.90
13610;DHT22;6876;50.788;4.940;2023-05-10T08:23:52;12.90;99.90
13610;DHT22;6876;50.788;4.940;2023-05-10T08:26:40;12.90;99.90
13610;DHT22;6876;50.788;4.940;2023-05-10T08:29:27;12.90;99.90
13610;DHT22;6876;50.788;4.940;2023-05-10T08:32:14;13.00;99.90
13610;DHT22;6876;50.788;4.940;2023-05-10T08:35:04;13.10;99.90
13610;DHT22;6876;50.788;4.940;2023-05-10T08:37:51;13.20;99.90
13610;DHT22;6876;50.788;4.940;2023-05-10T08:40:41;13.30;99.90
13610;DHT22;6876;50.788;4.940;2023-05-10T08:43:29;13.40;99.90
13610;DHT22;6876;50.788;4.940;2023-05-10T08:46:18;13.30;99.90
13610;DHT22;6876;50.788;4.940;2023-05-10T08:49:07;13.40;99.90
13610;DHT22;6876;50.788;4.940;2023-05-10T08:51:57;13.60;99.90
13610;DHT22;6876;50.788;4.940;2023-05-10T08:54:44;13.60;99.90
13610;DHT22;6876;50.788;4.940;2023-05-10T08:57:32;13.60;99.90
13610;DHT22;6876;50.788;4.940;2023-05-10T09:00:20;13.70;99.90
13610;DHT22;6876;50.788;4.940;2023-05-10T09:03:09;13.80;99.90
13610;DHT22;6876;50.788;4.940;2023-05-10T09:05:56;13.80;99.90
13610;DHT22;6876;50.788;4.940;2023-05-10T09:08:45;13.80;99.90
13610;DHT22;6876;50.788;4.940;2023-05-10T09:11:33;13.80;99.90
13610;DHT22;6876;50.788;4.940;2023-05-10T09:14:23;13.70;99.90
13610;DHT22;6876;50.788;4.940;2023-05-10T09:17:11;13.60;99.90
13610;DHT22;6876;50.788;4.940;2023-05-10T09:19:59;13.60;99.90
13610;DHT22;6876;50.788;4.940;2023-05-10T09:22:47;13.60;99.90
13610;DHT22;6876;50.788;4.940;2023-05-10T09:25:35;13.70;99.90
13610;DHT22;6876;50.788;4.940;2023-05-10T09:28:24;13.60;99.90
13610;DHT22;6876;50.788;4.940;2023-05-10T09:31:11;13.60;99.90
13610;DHT22;6876;50.788;4.940;2023-05-10T09:33:59;13.60;99.90
13610;DHT22;6876;50.788;4.940;2023-05-10T09:36:51;13.60;99.90
13610;DHT22;6876;50.788;4.940;2023-05-10T09:39:38;13.70;99.90
13610;DHT22;6876;50.788;4.940;2023-05-10T09:42:28;13.70;99.90
13610;DHT22;6876;50.788;4.940;2023-05-10T09:45:16;13.80;99.90
13610;DHT22;6876;50.788;4.940;2023-05-10T09:48:04;13.60;99.90
13610;DHT22;6876;50.788;4.940;2023-05-10T09:50:57;13.60;99.90
13610;DHT22;6876;50.788;4.940;2023-05-10T09:53:45;13.60;99.90
13610;DHT22;6876;50.788;4.940;2023-05-10T09:56:35;13.70;99.90
13610;DHT22;6876;50.788;4.940;2023-05-10T09:59:27;13.80;99.90
13610;DHT22;6876;50.788;4.940;2023-05-10T10:02:14;13.90;99.90
13610;DHT22;6876;50.788;4.940;2023-05-10T10:05:02;14.00;99.90
13610;DHT22;6876;50.788;4.940;2023-05-10T10:07:49;14.10;99.90
13610;DHT22;6876;50.788;4.940;2023-05-10T10:10:38;14.20;99.90
13610;DHT22;6876;50.788;4.940;2023-05-10T10:13:26;14.30;99.90
13610;DHT22;6876;50.788;4.940;2023-05-10T10:16:14;14.30;99.90
13610;DHT22;6876;50.788;4.940;2023-05-10T10:19:02;14.40;99.90
13610;DHT22;6876;50.788;4.940;2023-05-10T10:21:50;14.40;99.90
13610;DHT22;6876;50.788;4.940;2023-05-10T10:24:37;14.40;99.90
13610;DHT22;6876;50.788;4.940;2023-05-10T10:27:32;14.40;99.90
13610;DHT22;6876;50.788;4.940;2023-05-10T10:30:28;14.40;99.90
13610;DHT22;6876;50.788;4.940;2023-05-10T10:33:36;14.40;99.90
13610;DHT22;6876;50.788;4.940;2023-05-10T10:36:26;14.50;99.90
13610;DHT22;6876;50.788;4.940;2023-05-10T10:39:14;14.60;99.90
13610;DHT22;6876;50.788;4.940;2023-05-10T10:42:02;14.80;99.90
13610;DHT22;6876;50.788;4.940;2023-05-10T10:44:49;14.90;99.90
13610;DHT22;6876;50.788;4.940;2023-05-10T10:48:21;14.90;99.90
13610;DHT22;6876;50.788;4.940;2023-05-10T10:51:10;15.00;99.90
13610;DHT22;6876;50.788;4.940;2023-05-10T10:54:08;15.00;99.90
13610;DHT22;6876;50.788;4.940;2023-05-10T10:57:10;15.20;99.90
13610;DHT22;6876;50.788;4.940;2023-05-10T11:00:26;15.20;99.90
13610;DHT22;6876;50.788;4.940;2023-05-10T11:03:15;15.20;99.90
13610;DHT22;6876;50.788;4.940;2023-05-10T11:06:04;15.30;99.90
13610;DHT22;6876;50.788;4.940;2023-05-10T11:08:53;15.20;99.90
13610;DHT22;6876;50.788;4.940;2023-05-10T11:11:52;15.20;99.90
13610;DHT22;6876;50.788;4.940;2023-05-10T11:14:40;15.40;99.90
13610;DHT22;6876;50.788;4.940;2023-05-10T11:17:29;15.40;99.90
13610;DHT22;6876;50.788;4.940;2023-05-10T11:20:18;15.40;99.90
13610;DHT22;6876;50.788;4.940;2023-05-10T11:23:12;15.40;99.90
13610;DHT22;6876;50.788;4.940;2023-05-10T11:26:03;15.20;99.90
13610;DHT22;6876;50.788;4.940;2023-05-10T11:28:55;14.90;99.90
13610;DHT22;6876;50.788;4.940;2023-05-10T11:31:43;15.00;99.90
13610;DHT22;6876;50.788;4.940;2023-05-10T11:34:31;15.20;99.90
13610;DHT22;6876;50.788;4.940;2023-05-10T11:37:19;15.30;99.90
13610;DHT22;6876;50.788;4.940;2023-05-10T11:40:08;15.30;99.90
13610;DHT22;6876;50.788;4.940;2023-05-10T11:42:57;15.20;99.90
13610;DHT22;6876;50.788;4.940;2023-05-10T11:45:45;15.20;99.90
13610;DHT22;6876;50.788;4.940;2023-05-10T11:48:32;15.30;99.90
13610;DHT22;6876;50.788;4.940;2023-05-10T11:51:21;15.30;99.90
13610;DHT22;6876;50.788;4.940;2023-05-10T11:54:09;15.40;99.90
13610;DHT22;6876;50.788;4.940;2023-05-10T11:56:56;15.30;99.90
13610;DHT22;6876;50.788;4.940;2023-05-10T11:59:45;15.40;99.90
13610;DHT22;6876;50.788;4.940;2023-05-10T12:02:32;15.50;99.90
13610;DHT22;6876;50.788;4.940;2023-05-10T12:05:20;15.50;99.90
13610;DHT22;6876;50.788;4.940;2023-05-10T12:08:11;15.40;99.90
13610;DHT22;6876;50.788;4.940;2023-05-10T12:11:06;15.30;99.90
13610;DHT22;6876;50.788;4.940;2023-05-10T12:13:54;15.40;99.90
13610;DHT22;6876;50.788;4.940;2023-05-10T12:16:43;15.50;99.90
13610;DHT22;6876;50.788;4.940;2023-05-10T12:19:37;15.60;99.90
13610;DHT22;6876;50.788;4.940;2023-05-10T12:22:24;15.70;99.90
13610;DHT22;6876;50.788;4.940;2023-05-10T12:25:11;15.70;99.90
13610;DHT22;6876;50.788;4.940;2023-05-10T12:28:02;15.70;99.90
13610;DHT22;6876;50.788;4.940;2023-05-10T12:30:53;15.60;99.90
13610;DHT22;6876;50.788;4.940;2023-05-10T12:33:43;15.80;99.90
13610;DHT22;6876;50.788;4.940;2023-05-10T12:36:31;15.90;99.90
13610;DHT22;6876;50.788;4.940;2023-05-10T12:39:18;15.90;99.90
13610;DHT22;6876;50.788;4.940;2023-05-10T12:42:05;16.10;99.90
13610;DHT22;6876;50.788;4.940;2023-05-10T12:44:55;16.10;88.10
13610;DHT22;6876;50.788;4.940;2023-05-10T12:47:42;16.10;99.90
13610;DHT22;6876;50.788;4.940;2023-05-10T12:50:31;16.20;99.90
13610;DHT22;6876;50.788;4.940;2023-05-10T12:53:18;16.40;99.30
13610;DHT22;6876;50.788;4.940;2023-05-10T12:56:06;16.50;13.40
13610;DHT22;6876;50.788;4.940;2023-05-10T12:58:54;16.70;17.10
13610;DHT22;6876;50.788;4.940;2023-05-10T13:01:41;16.90;34.80
13610;DHT22;6876;50.788;4.940;2023-05-10T13:04:28;17.10;92.30
13610;DHT22;6876;50.788;4.940;2023-05-10T13:07:17;17.20;4.10
13610;DHT22;6876;50.788;4.940;2023-05-10T13:10:05;17.20;4.30
13610;DHT22;6876;50.788;4.940;2023-05-10T13:12:53;16.90;1.00
13610;DHT22;6876;50.788;4.940;2023-05-10T13:15:40;17.00;99.90
13610;DHT22;6876;50.788;4.940;2023-05-10T13:18:27;17.10;1.00
13610;DHT22;6876;50.788;4.940;2023-05-10T13:21:15;17.20;99.90
13610;DHT22;6876;50.788;4.940;2023-05-10T13:24:04;17.30;1.00
13610;DHT22;6876;50.788;4.940;2023-05-10T13:26:51;17.20;99.90
13610;DHT22;6876;50.788;4.940;2023-05-10T13:29:38;17.30;99.90
13610;DHT22;6876;50.788;4.940;2023-05-10T13:32:26;17.30;1.00
13610;DHT22;6876;50.788;4.940;2023-05-10T13:35:13;17.60;1.00
13610;DHT22;6876;50.788;4.940;2023-05-10T13:38:01;17.70;99.90
13610;DHT22;6876;50.788;4.940;2023-05-10T13:40:50;17.50;1.00
13610;DHT22;6876;50.788;4.940;2023-05-10T13:43:38;17.40;1.00
13610;DHT22;6876;50.788;4.940;2023-05-10T13:46:25;17.40;1.00
13610;DHT22;6876;50.788;4.940;2023-05-10T13:49:13;17.60;1.00
13610;DHT22;6876;50.788;4.940;2023-05-10T13:52:00;17.70;1.00
13610;DHT22;6876;50.788;4.940;2023-05-10T13:54:52;17.90;16.00
13610;DHT22;6876;50.788;4.940;2023-05-10T13:57:42;18.30;77.20
13610;DHT22;6876;50.788;4.940;2023-05-10T14:00:29;18.20;99.90
13610;DHT22;6876;50.788;4.940;2023-05-10T14:03:17;18.20;99.90
13610;DHT22;6876;50.788;4.940;2023-05-10T14:06:04;18.20;99.90
13610;DHT22;6876;50.788;4.940;2023-05-10T14:08:53;18.00;1.00
13610;DHT22;6876;50.788;4.940;2023-05-10T14:11:40;17.80;1.00
13610;DHT22;6876;50.788;4.940;2023-05-10T14:14:30;17.90;99.90
13610;DHT22;6876;50.788;4.940;2023-05-10T14:17:17;18.20;1.00
13610;DHT22;6876;50.788;4.940;2023-05-10T14:20:06;18.30;1.00
13610;DHT22;6876;50.788;4.940;2023-05-10T14:22:54;18.30;95.60
13610;DHT22;6876;50.788;4.940;2023-05-10T14:25:41;18.30;91.90
13610;DHT22;6876;50.788;4.940;2023-05-10T14:28:29;17.90;1.00
13610;DHT22;6876;50.788;4.940;2023-05-10T14:31:18;17.90;1.00
13610;DHT22;6876;50.788;4.940;2023-05-10T14:34:06;17.70;95.60
13610;DHT22;6876;50.788;4.940;2023-05-10T14:36:53;17.80;1.00
13610;DHT22;6876;50.788;4.940;2023-05-10T14:39:41;18.10;1.00
13610;DHT22;6876;50.788;4.940;2023-05-10T14:42:28;18.00;99.90
13610;DHT22;6876;50.788;4.940;2023-05-10T14:45:15;18.10;99.90
13610;DHT22;6876;50.788;4.940;2023-05-10T14:48:04;17.80;1.00
13610;DHT22;6876;50.788;4.940;2023-05-10T14:50:51;17.70;1.00
13610;DHT22;6876;50.788;4.940;2023-05-10T14:53:39;17.80;45.30
13610;DHT22;6876;50.788;4.940;2023-05-10T14:56:26;17.70;1.00
13610;DHT22;6876;50.788;4.940;2023-05-10T14:59:14;17.90;1.00
13610;DHT22;6876;50.788;4.940;2023-05-10T15:02:01;18.10;1.00
13610;DHT22;6876;50.788;4.940;2023-05-10T15:04:50;18.30;1.00
13610;DHT22;6876;50.788;4.940;2023-05-10T15:07:37;18.30;1.00
13610;DHT22;6876;50.788;4.940;2023-05-10T15:10:25;18.60;1.00
13610;DHT22;6876;50.788;4.940;2023-05-10T15:13:12;18.70;1.00
13610;DHT22;6876;50.788;4.940;2023-05-10T15:15:59;18.50;1.00
13610;DHT22;6876;50.788;4.940;2023-05-10T15:18:47;18.20;1.00
13610;DHT22;6876;50.788;4.940;2023-05-10T15:21:35;18.10;1.00
13610;DHT22;6876;50.788;4.940;2023-05-10T15:24:24;18.20;1.00
13610;DHT22;6876;50.788;4.940;2023-05-10T15:27:12;18.20;1.00
13610;DHT22;6876;50.788;4.940;2023-05-10T15:30:00;18.10;99.90
13610;DHT22;6876;50.788;4.940;2023-05-10T15:32:47;18.00;99.90
13610;DHT22;6876;50.788;4.940;2023-05-10T15:35:34;17.90;99.90
13610;DHT22;6876;50.788;4.940;2023-05-10T15:38:25;18.10;1.00
13610;DHT22;6876;50.788;4.940;2023-05-10T15:41:12;18.10;1.00
13610;DHT22;6876;50.788;4.940;2023-05-10T15:44:00;17.80;1.00
13610;DHT22;6876;50.788;4.940;2023-05-10T15:46:47;17.60;99.90
13610;DHT22;6876;50.788;4.940;2023-05-10T15:49:34;17.70;1.00
13610;DHT22;6876;50.788;4.940;2023-05-10T15:52:22;17.90;1.00
13610;DHT22;6876;50.788;4.940;2023-05-10T15:55:11;18.30;1.00
13610;DHT22;6876;50.788;4.940;2023-05-10T15:57:59;18.20;99.90
13610;DHT22;6876;50.788;4.940;2023-05-10T16:00:46;18.30;1.00
13610;DHT22;6876;50.788;4.940;2023-05-10T16:03:33;18.30;1.00
13610;DHT22;6876;50.788;4.940;2023-05-10T16:06:21;18.20;1.00
13610;DHT22;6876;50.788;4.940;2023-05-10T16:09:08;18.20;1.00
13610;DHT22;6876;50.788;4.940;2023-05-10T16:11:57;18.20;1.00
13610;DHT22;6876;50.788;4.940;2023-05-10T16:14:45;18.30;1.00
13610;DHT22;6876;50.788;4.940;2023-05-10T16:17:32;18.20;1.00
13610;DHT22;6876;50.788;4.940;2023-05-10T16:20:19;18.10;1.00
13610;DHT22;6876;50.788;4.940;2023-05-10T16:23:07;18.10;1.00
13610;DHT22;6876;50.788;4.940;2023-05-10T16:25:54;18.00;1.00
13610;DHT22;6876;50.788;4.940;2023-05-10T16:28:43;18.10;1.00
13610;DHT22;6876;50.788;4.940;2023-05-10T16:31:30;17.90;1.00
13610;DHT22;6876;50.788;4.940;2023-05-10T16:34:18;17.50;1.00
13610;DHT22;6876;50.788;4.940;2023-05-10T16:37:09;17.10;1.00
13610;DHT22;6876;50.788;4.940;2023-05-10T16:39:56;16.90;1.00
13610;DHT22;6876;50.788;4.940;2023-05-10T16:42:43;16.80;1.00
13610;DHT22;6876;50.788;4.940;2023-05-10T16:45:32;16.70;1.00
13610;DHT22;6876;50.788;4.940;2023-05-10T16:48:19;16.60;1.00
13610;DHT22;6876;50.788;4.940;2023-05-10T16:51:07;16.40;1.00
13610;DHT22;6876;50.788;4.940;2023-05-10T16:53:54;16.30;1.00
13610;DHT22;6876;50.788;4.940;2023-05-10T16:56:42;16.20;1.00
13610;DHT22;6876;50.788;4.940;2023-05-10T16:59:29;16.00;1.00
13610;DHT22;6876;50.788;4.940;2023-05-10T17:02:18;16.00;1.00
13610;DHT22;6876;50.788;4.940;2023-05-10T17:05:05;15.90;1.00
13610;DHT22;6876;50.788;4.940;2023-05-10T17:07:53;15.90;1.00
13610;DHT22;6876;50.788;4.940;2023-05-10T17:10:41;15.80;1.00
13610;DHT22;6876;50.788;4.940;2023-05-10T17:13:28;15.60;99.90
13610;DHT22;6876;50.788;4.940;2023-05-10T17:16:15;15.60;99.90
13610;DHT22;6876;50.788;4.940;2023-05-10T17:19:05;15.60;99.90
13610;DHT22;6876;50.788;4.940;2023-05-10T17:21:52;15.70;99.90
13610;DHT22;6876;50.788;4.940;2023-05-10T17:24:39;15.60;99.90
13610;DHT22;6876;50.788;4.940;2023-05-10T17:27:27;15.70;99.90
13610;DHT22;6876;50.788;4.940;2023-05-10T17:30:15;15.90;99.90
13610;DHT22;6876;50.788;4.940;2023-05-10T17:33:07;16.10;97.60
13610;DHT22;6876;50.788;4.940;2023-05-10T17:35:56;16.10;98.60
13610;DHT22;6876;50.788;4.940;2023-05-10T17:38:44;16.10;74.10
13610;DHT22;6876;50.788;4.940;2023-05-10T17:41:31;16.10;45.70
13610;DHT22;6876;50.788;4.940;2023-05-10T17:44:18;15.80;99.90
13610;DHT22;6876;50.788;4.940;2023-05-10T17:47:06;15.70;1.00
13610;DHT22;6876;50.788;4.940;2023-05-10T17:49:53;15.70;99.90
13610;DHT22;6876;50.788;4.940;2023-05-10T17:52:42;15.60;99.90
13610;DHT22;6876;50.788;4.940;2023-05-10T17:55:29;15.40;1.00
13610;DHT22;6876;50.788;4.940;2023-05-10T17:58:19;15.40;99.90
13610;DHT22;6876;50.788;4.940;2023-05-10T18:01:06;15.40;1.00
13610;DHT22;6876;50.788;4.940;2023-05-10T18:03:54;15.40;99.90
13610;DHT22;6876;50.788;4.940;2023-05-10T18:06:41;15.40;1.00
13610;DHT22;6876;50.788;4.940;2023-05-10T18:09:30;15.30;1.00
13610;DHT22;6876;50.788;4.940;2023-05-10T18:12:19;15.30;1.00